sensor_id;sensor_type;location;lat;lon;timestamp;P1;durP1;ratioP1;P2;durP2;ratioP2
53833;SDS011;39735;51.432;5.482;2022-11-25T00:00:49;23.98;;;3.28;;
53833;SDS011;39735;51.432;5.482;2022-11-25T00:03:14;26.10;;;4.50;;
53833;SDS011;39735;51.432;5.482;2022-11-25T00:05:40;22.65;;;4.50;;
53833;SDS011;39735;51.432;5.482;2022-11-25T00:08:05;29.33;;;3.95;;
53833;SDS011;39735;51.432;5.482;2022-11-25T00:10:30;22.88;;;3.65;;
53833;SDS011;39735;51.432;5.482;2022-11-25T00:12:56;23.52;;;4.70;;
53833;SDS011;39735;51.432;5.482;2022-11-25T00:15:21;40.00;;;6.32;;
53833;SDS011;39735;51.432;5.482;2022-11-25T00:17:46;26.38;;;4.57;;
53833;SDS011;39735;51.432;5.482;2022-11-25T00:20:12;19.05;;;5.97;;
53833;SDS011;39735;51.432;5.482;2022-11-25T00:22:37;16.15;;;4.97;;
53833;SDS011;39735;51.432;5.482;2022-11-25T00:25:03;19.13;;;3.72;;
53833;SDS011;39735;51.432;5.482;2022-11-25T00:27:28;26.25;;;5.32;;
53833;SDS011;39735;51.432;5.482;2022-11-25T00:29:54;34.55;;;5.35;;
53833;SDS011;39735;51.432;5.482;2022-11-25T00:32:19;27.52;;;5.07;;
53833;SDS011;39735;51.432;5.482;2022-11-25T00:34:44;38.08;;;3.85;;
53833;SDS011;39735;51.432;5.482;2022-11-25T00:37:10;54.28;;;6.03;;
53833;SDS011;39735;51.432;5.482;2022-11-25T00:39:35;20.67;;;5.25;;
53833;SDS011;39735;51.432;5.482;2022-11-25T00:42:01;31.05;;;4.72;;
53833;SDS011;39735;51.432;5.482;2022-11-25T00:44:44;38.87;;;6.30;;
53833;SDS011;39735;51.432;5.482;2022-11-25T00:47:10;30.70;;;4.03;;
53833;SDS011;39735;51.432;5.482;2022-11-25T00:49:41;24.75;;;5.43;;
53833;SDS011;39735;51.432;5.482;2022-11-25T00:52:08;32.80;;;6.88;;
53833;SDS011;39735;51.432;5.482;2022-11-25T00:54:34;26.73;;;6.70;;
53833;SDS011;39735;51.432;5.482;2022-11-25T00:56:59;27.77;;;5.38;;
53833;SDS011;39735;51.432;5.482;2022-11-25T00:59:25;38.45;;;6.40;;
53833;SDS011;39735;51.432;5.482;2022-11-25T01:01:50;34.70;;;8.98;;
53833;SDS011;39735;51.432;5.482;2022-11-25T01:04:16;30.95;;;4.95;;
53833;SDS011;39735;51.432;5.482;2022-11-25T01:06:41;38.95;;;6.03;;
53833;SDS011;39735;51.432;5.482;2022-11-25T01:09:07;28.45;;;5.43;;
53833;SDS011;39735;51.432;5.482;2022-11-25T01:11:33;28.73;;;4.68;;
53833;SDS011;39735;51.432;5.482;2022-11-25T01:13:59;23.83;;;4.15;;
53833;SDS011;39735;51.432;5.482;2022-11-25T01:16:24;37.40;;;5.70;;
53833;SDS011;39735;51.432;5.482;2022-11-25T01:18:50;23.42;;;5.32;;
53833;SDS011;39735;51.432;5.482;2022-11-25T01:21:23;25.80;;;5.00;;
53833;SDS011;39735;51.432;5.482;2022-11-25T01:23:50;37.30;;;4.28;;
53833;SDS011;39735;51.432;5.482;2022-11-25T01:26:18;28.27;;;3.80;;
53833;SDS011;39735;51.432;5.482;2022-11-25T01:28:44;20.33;;;5.00;;
53833;SDS011;39735;51.432;5.482;2022-11-25T01:31:11;27.48;;;4.25;;
53833;SDS011;39735;51.432;5.482;2022-11-25T01:33:39;24.27;;;4.40;;
53833;SDS011;39735;51.432;5.482;2022-11-25T01:36:09;26.83;;;4.32;;
53833;SDS011;39735;51.432;5.482;2022-11-25T01:41:05;17.67;;;3.78;;
53833;SDS011;39735;51.432;5.482;2022-11-25T01:43:31;36.63;;;7.40;;
53833;SDS011;39735;51.432;5.482;2022-11-25T01:46:01;33.03;;;6.90;;
53833;SDS011;39735;51.432;5.482;2022-11-25T01:48:38;39.58;;;4.57;;
53833;SDS011;39735;51.432;5.482;2022-11-25T01:51:09;23.85;;;5.00;;
53833;SDS011;39735;51.432;5.482;2022-11-25T01:53:55;23.02;;;4.68;;
53833;SDS011;39735;51.432;5.482;2022-11-25T01:56:24;24.90;;;4.32;;
53833;SDS011;39735;51.432;5.482;2022-11-25T01:58:50;19.27;;;3.38;;
53833;SDS011;39735;51.432;5.482;2022-11-25T02:01:15;26.65;;;6.68;;
53833;SDS011;39735;51.432;5.482;2022-11-25T02:03:43;36.65;;;6.40;;
53833;SDS011;39735;51.432;5.482;2022-11-25T02:06:21;27.40;;;2.88;;
53833;SDS011;39735;51.432;5.482;2022-11-25T02:08:49;24.95;;;6.28;;
53833;SDS011;39735;51.432;5.482;2022-11-25T02:11:17;21.88;;;4.57;;
53833;SDS011;39735;51.432;5.482;2022-11-25T02:13:43;35.45;;;5.68;;
53833;SDS011;39735;51.432;5.482;2022-11-25T02:16:10;17.73;;;4.97;;
53833;SDS011;39735;51.432;5.482;2022-11-25T02:18:36;41.92;;;8.20;;
53833;SDS011;39735;51.432;5.482;2022-11-25T02:21:01;35.80;;;6.82;;
53833;SDS011;39735;51.432;5.482;2022-11-25T02:23:50;20.48;;;5.50;;
53833;SDS011;39735;51.432;5.482;2022-11-25T02:26:20;21.30;;;3.72;;
53833;SDS011;39735;51.432;5.482;2022-11-25T02:28:45;23.27;;;4.93;;
53833;SDS011;39735;51.432;5.482;2022-11-25T02:31:11;9.05;;;3.20;;
53833;SDS011;39735;51.432;5.482;2022-11-25T02:33:36;19.17;;;4.22;;
53833;SDS011;39735;51.432;5.482;2022-11-25T02:36:02;20.63;;;4.25;;
53833;SDS011;39735;51.432;5.482;2022-11-25T02:38:49;19.13;;;2.55;;
53833;SDS011;39735;51.432;5.482;2022-11-25T02:41:18;30.85;;;5.45;;
53833;SDS011;39735;51.432;5.482;2022-11-25T02:43:46;40.80;;;4.70;;
53833;SDS011;39735;51.432;5.482;2022-11-25T02:46:13;12.55;;;3.42;;
53833;SDS011;39735;51.432;5.482;2022-11-25T02:48:40;19.10;;;3.10;;
53833;SDS011;39735;51.432;5.482;2022-11-25T02:51:07;24.52;;;4.55;;
53833;SDS011;39735;51.432;5.482;2022-11-25T02:53:34;27.00;;;6.18;;
53833;SDS011;39735;51.432;5.482;2022-11-25T02:56:00;21.17;;;3.45;;
53833;SDS011;39735;51.432;5.482;2022-11-25T02:58:25;10.38;;;3.08;;
53833;SDS011;39735;51.432;5.482;2022-11-25T03:00:51;9.90;;;2.63;;
53833;SDS011;39735;51.432;5.482;2022-11-25T03:03:17;17.30;;;2.90;;
53833;SDS011;39735;51.432;5.482;2022-11-25T03:05:43;29.88;;;4.43;;
53833;SDS011;39735;51.432;5.482;2022-11-25T03:08:08;23.40;;;3.78;;
53833;SDS011;39735;51.432;5.482;2022-11-25T03:10:34;17.88;;;2.47;;
53833;SDS011;39735;51.432;5.482;2022-11-25T03:12:59;37.35;;;5.18;;
53833;SDS011;39735;51.432;5.482;2022-11-25T03:15:25;31.42;;;4.03;;
53833;SDS011;39735;51.432;5.482;2022-11-25T03:17:50;20.23;;;3.03;;
53833;SDS011;39735;51.432;5.482;2022-11-25T03:20:16;14.90;;;1.70;;
53833;SDS011;39735;51.432;5.482;2022-11-25T03:22:42;14.68;;;2.13;;
53833;SDS011;39735;51.432;5.482;2022-11-25T03:25:07;23.38;;;4.13;;
53833;SDS011;39735;51.432;5.482;2022-11-25T03:27:34;37.05;;;5.13;;
53833;SDS011;39735;51.432;5.482;2022-11-25T03:29:59;14.95;;;2.30;;
53833;SDS011;39735;51.432;5.482;2022-11-25T03:32:25;9.25;;;2.17;;
53833;SDS011;39735;51.432;5.482;2022-11-25T03:34:50;7.70;;;1.30;;
53833;SDS011;39735;51.432;5.482;2022-11-25T03:37:16;20.40;;;2.00;;
53833;SDS011;39735;51.432;5.482;2022-11-25T03:39:41;20.05;;;2.50;;
53833;SDS011;39735;51.432;5.482;2022-11-25T03:42:07;7.68;;;1.65;;
53833;SDS011;39735;51.432;5.482;2022-11-25T03:44:32;14.25;;;2.13;;
53833;SDS011;39735;51.432;5.482;2022-11-25T03:46:58;9.07;;;1.75;;
53833;SDS011;39735;51.432;5.482;2022-11-25T03:49:23;13.98;;;2.20;;
53833;SDS011;39735;51.432;5.482;2022-11-25T03:51:48;11.60;;;2.05;;
53833;SDS011;39735;51.432;5.482;2022-11-25T03:54:14;10.25;;;1.75;;
53833;SDS011;39735;51.432;5.482;2022-11-25T03:56:39;6.70;;;1.48;;
53833;SDS011;39735;51.432;5.482;2022-11-25T03:59:04;2.28;;;1.17;;
53833;SDS011;39735;51.432;5.482;2022-11-25T04:01:30;18.70;;;2.38;;
53833;SDS011;39735;51.432;5.482;2022-11-25T04:03:55;7.18;;;1.27;;
53833;SDS011;39735;51.432;5.482;2022-11-25T04:06:21;16.50;;;2.17;;
53833;SDS011;39735;51.432;5.482;2022-11-25T04:08:48;11.38;;;2.38;;
53833;SDS011;39735;51.432;5.482;2022-11-25T04:11:14;16.25;;;2.15;;
53833;SDS011;39735;51.432;5.482;2022-11-25T04:13:39;14.45;;;1.95;;
53833;SDS011;39735;51.432;5.482;2022-11-25T04:16:04;12.00;;;3.03;;
53833;SDS011;39735;51.432;5.482;2022-11-25T04:18:30;8.52;;;1.40;;
53833;SDS011;39735;51.432;5.482;2022-11-25T04:20:55;5.47;;;1.17;;
53833;SDS011;39735;51.432;5.482;2022-11-25T04:23:20;18.85;;;1.73;;
53833;SDS011;39735;51.432;5.482;2022-11-25T04:25:48;13.38;;;1.77;;
53833;SDS011;39735;51.432;5.482;2022-11-25T04:28:13;8.40;;;1.67;;
53833;SDS011;39735;51.432;5.482;2022-11-25T04:30:39;13.10;;;2.35;;
53833;SDS011;39735;51.432;5.482;2022-11-25T04:33:04;17.88;;;2.72;;
53833;SDS011;39735;51.432;5.482;2022-11-25T04:35:29;9.18;;;1.88;;
53833;SDS011;39735;51.432;5.482;2022-11-25T04:37:55;11.48;;;2.13;;
53833;SDS011;39735;51.432;5.482;2022-11-25T04:40:20;23.02;;;3.22;;
53833;SDS011;39735;51.432;5.482;2022-11-25T04:42:45;17.65;;;4.22;;
53833;SDS011;39735;51.432;5.482;2022-11-25T04:45:12;10.65;;;2.33;;
53833;SDS011;39735;51.432;5.482;2022-11-25T04:47:39;24.15;;;3.45;;
53833;SDS011;39735;51.432;5.482;2022-11-25T04:50:06;4.82;;;1.35;;
53833;SDS011;39735;51.432;5.482;2022-11-25T04:52:33;25.65;;;1.77;;
53833;SDS011;39735;51.432;5.482;2022-11-25T04:54:59;15.55;;;2.53;;
53833;SDS011;39735;51.432;5.482;2022-11-25T04:57:24;19.08;;;2.17;;
53833;SDS011;39735;51.432;5.482;2022-11-25T04:59:50;5.20;;;1.35;;
53833;SDS011;39735;51.432;5.482;2022-11-25T05:02:16;5.97;;;1.52;;
53833;SDS011;39735;51.432;5.482;2022-11-25T05:04:44;4.88;;;1.45;;
53833;SDS011;39735;51.432;5.482;2022-11-25T05:07:11;12.88;;;1.90;;
53833;SDS011;39735;51.432;5.482;2022-11-25T05:09:36;4.50;;;1.08;;
53833;SDS011;39735;51.432;5.482;2022-11-25T05:12:02;9.25;;;1.33;;
53833;SDS011;39735;51.432;5.482;2022-11-25T05:14:28;3.60;;;1.70;;
53833;SDS011;39735;51.432;5.482;2022-11-25T05:16:54;12.75;;;1.38;;
53833;SDS011;39735;51.432;5.482;2022-11-25T05:19:19;8.73;;;2.20;;
53833;SDS011;39735;51.432;5.482;2022-11-25T05:21:44;4.47;;;1.08;;
53833;SDS011;39735;51.432;5.482;2022-11-25T05:24:10;7.13;;;1.20;;
53833;SDS011;39735;51.432;5.482;2022-11-25T05:26:35;4.13;;;2.15;;
53833;SDS011;39735;51.432;5.482;2022-11-25T05:29:00;5.28;;;1.65;;
53833;SDS011;39735;51.432;5.482;2022-11-25T05:31:26;4.18;;;2.38;;
53833;SDS011;39735;51.432;5.482;2022-11-25T05:33:51;10.98;;;1.73;;
53833;SDS011;39735;51.432;5.482;2022-11-25T05:36:16;6.45;;;1.05;;
53833;SDS011;39735;51.432;5.482;2022-11-25T05:38:42;19.60;;;4.50;;
53833;SDS011;39735;51.432;5.482;2022-11-25T05:41:07;9.88;;;1.98;;
53833;SDS011;39735;51.432;5.482;2022-11-25T05:43:35;10.10;;;2.08;;
53833;SDS011;39735;51.432;5.482;2022-11-25T05:46:04;4.50;;;1.17;;
53833;SDS011;39735;51.432;5.482;2022-11-25T05:48:30;8.32;;;1.40;;
53833;SDS011;39735;51.432;5.482;2022-11-25T05:50:58;15.32;;;1.73;;
53833;SDS011;39735;51.432;5.482;2022-11-25T05:53:27;13.35;;;2.85;;
53833;SDS011;39735;51.432;5.482;2022-11-25T05:55:57;10.63;;;2.40;;
53833;SDS011;39735;51.432;5.482;2022-11-25T05:58:24;7.18;;;1.45;;
53833;SDS011;39735;51.432;5.482;2022-11-25T06:00:50;12.82;;;2.53;;
53833;SDS011;39735;51.432;5.482;2022-11-25T06:03:15;1.90;;;1.58;;
53833;SDS011;39735;51.432;5.482;2022-11-25T06:05:41;12.52;;;2.35;;
53833;SDS011;39735;51.432;5.482;2022-11-25T06:08:07;7.05;;;2.47;;
53833;SDS011;39735;51.432;5.482;2022-11-25T06:10:32;22.15;;;2.03;;
53833;SDS011;39735;51.432;5.482;2022-11-25T06:12:58;14.50;;;2.15;;
53833;SDS011;39735;51.432;5.482;2022-11-25T06:15:23;7.07;;;1.30;;
53833;SDS011;39735;51.432;5.482;2022-11-25T06:17:49;9.80;;;4.47;;
53833;SDS011;39735;51.432;5.482;2022-11-25T06:20:14;18.70;;;2.53;;
53833;SDS011;39735;51.432;5.482;2022-11-25T06:22:40;11.32;;;3.03;;
53833;SDS011;39735;51.432;5.482;2022-11-25T06:25:05;9.40;;;1.70;;
53833;SDS011;39735;51.432;5.482;2022-11-25T06:27:31;9.85;;;2.33;;
53833;SDS011;39735;51.432;5.482;2022-11-25T06:29:57;20.27;;;2.75;;
53833;SDS011;39735;51.432;5.482;2022-11-25T06:32:22;4.65;;;2.65;;
53833;SDS011;39735;51.432;5.482;2022-11-25T06:34:48;12.82;;;3.33;;
53833;SDS011;39735;51.432;5.482;2022-11-25T06:37:13;6.32;;;2.22;;
53833;SDS011;39735;51.432;5.482;2022-11-25T06:39:38;17.48;;;2.05;;
53833;SDS011;39735;51.432;5.482;2022-11-25T06:42:04;7.85;;;3.08;;
53833;SDS011;39735;51.432;5.482;2022-11-25T06:44:29;11.32;;;4.13;;
53833;SDS011;39735;51.432;5.482;2022-11-25T06:46:55;14.48;;;3.53;;
53833;SDS011;39735;51.432;5.482;2022-11-25T06:49:20;13.75;;;2.85;;
53833;SDS011;39735;51.432;5.482;2022-11-25T06:51:47;7.53;;;1.95;;
53833;SDS011;39735;51.432;5.482;2022-11-25T06:54:13;17.05;;;2.83;;
53833;SDS011;39735;51.432;5.482;2022-11-25T06:56:38;15.30;;;4.47;;
53833;SDS011;39735;51.432;5.482;2022-11-25T06:59:04;21.77;;;4.65;;
53833;SDS011;39735;51.432;5.482;2022-11-25T07:01:30;22.17;;;4.10;;
53833;SDS011;39735;51.432;5.482;2022-11-25T07:03:59;17.80;;;2.92;;
53833;SDS011;39735;51.432;5.482;2022-11-25T07:06:27;20.20;;;3.10;;
53833;SDS011;39735;51.432;5.482;2022-11-25T07:08:53;17.70;;;3.05;;
53833;SDS011;39735;51.432;5.482;2022-11-25T07:11:22;20.27;;;5.78;;
53833;SDS011;39735;51.432;5.482;2022-11-25T07:13:53;19.02;;;4.22;;
53833;SDS011;39735;51.432;5.482;2022-11-25T07:16:21;18.80;;;4.07;;
53833;SDS011;39735;51.432;5.482;2022-11-25T07:18:46;17.15;;;3.03;;
53833;SDS011;39735;51.432;5.482;2022-11-25T07:21:13;13.63;;;4.22;;
53833;SDS011;39735;51.432;5.482;2022-11-25T07:23:40;33.35;;;5.22;;
53833;SDS011;39735;51.432;5.482;2022-11-25T07:26:11;17.65;;;5.13;;
53833;SDS011;39735;51.432;5.482;2022-11-25T07:28:36;19.42;;;7.50;;
53833;SDS011;39735;51.432;5.482;2022-11-25T07:31:13;16.27;;;6.45;;
53833;SDS011;39735;51.432;5.482;2022-11-25T07:33:40;24.38;;;5.57;;
53833;SDS011;39735;51.432;5.482;2022-11-25T07:36:07;20.38;;;5.93;;
53833;SDS011;39735;51.432;5.482;2022-11-25T07:38:33;12.40;;;4.50;;
53833;SDS011;39735;51.432;5.482;2022-11-25T07:41:09;26.10;;;4.97;;
53833;SDS011;39735;51.432;5.482;2022-11-25T07:43:37;32.60;;;6.32;;
53833;SDS011;39735;51.432;5.482;2022-11-25T07:46:14;13.57;;;5.07;;
53833;SDS011;39735;51.432;5.482;2022-11-25T07:48:41;12.07;;;4.60;;
53833;SDS011;39735;51.432;5.482;2022-11-25T07:51:16;14.00;;;4.72;;
53833;SDS011;39735;51.432;5.482;2022-11-25T07:53:44;29.15;;;5.15;;
53833;SDS011;39735;51.432;5.482;2022-11-25T07:56:10;26.35;;;5.28;;
53833;SDS011;39735;51.432;5.482;2022-11-25T07:58:35;36.53;;;7.07;;
53833;SDS011;39735;51.432;5.482;2022-11-25T08:01:02;48.90;;;9.65;;
53833;SDS011;39735;51.432;5.482;2022-11-25T08:03:28;37.90;;;7.63;;
53833;SDS011;39735;51.432;5.482;2022-11-25T08:05:53;32.83;;;6.60;;
53833;SDS011;39735;51.432;5.482;2022-11-25T08:08:18;22.92;;;6.28;;
53833;SDS011;39735;51.432;5.482;2022-11-25T08:10:44;33.58;;;6.07;;
53833;SDS011;39735;51.432;5.482;2022-11-25T08:13:09;20.52;;;4.68;;
53833;SDS011;39735;51.432;5.482;2022-11-25T08:15:34;27.08;;;5.57;;
53833;SDS011;39735;51.432;5.482;2022-11-25T08:18:00;23.90;;;5.38;;
53833;SDS011;39735;51.432;5.482;2022-11-25T08:20:25;19.70;;;6.05;;
53833;SDS011;39735;51.432;5.482;2022-11-25T08:22:51;20.38;;;6.40;;
53833;SDS011;39735;51.432;5.482;2022-11-25T08:25:17;25.00;;;6.10;;
53833;SDS011;39735;51.432;5.482;2022-11-25T08:27:43;12.07;;;4.90;;
53833;SDS011;39735;51.432;5.482;2022-11-25T08:30:08;30.35;;;6.55;;
53833;SDS011;39735;51.432;5.482;2022-11-25T08:32:37;23.15;;;7.07;;
53833;SDS011;39735;51.432;5.482;2022-11-25T08:35:03;11.82;;;4.88;;
53833;SDS011;39735;51.432;5.482;2022-11-25T08:37:29;25.42;;;5.00;;
53833;SDS011;39735;51.432;5.482;2022-11-25T08:39:55;19.58;;;4.80;;
53833;SDS011;39735;51.432;5.482;2022-11-25T08:42:20;27.17;;;4.63;;
53833;SDS011;39735;51.432;5.482;2022-11-25T08:44:49;25.13;;;5.00;;
53833;SDS011;39735;51.432;5.482;2022-11-25T08:47:16;21.63;;;5.03;;
53833;SDS011;39735;51.432;5.482;2022-11-25T08:49:42;22.88;;;4.95;;
53833;SDS011;39735;51.432;5.482;2022-11-25T08:52:07;24.95;;;5.10;;
53833;SDS011;39735;51.432;5.482;2022-11-25T08:54:33;17.42;;;3.92;;
53833;SDS011;39735;51.432;5.482;2022-11-25T08:56:58;61.40;;;7.65;;
53833;SDS011;39735;51.432;5.482;2022-11-25T08:59:24;19.55;;;5.75;;
53833;SDS011;39735;51.432;5.482;2022-11-25T09:01:50;20.02;;;4.03;;
53833;SDS011;39735;51.432;5.482;2022-11-25T09:04:15;37.47;;;5.53;;
53833;SDS011;39735;51.432;5.482;2022-11-25T09:06:41;21.48;;;4.00;;
53833;SDS011;39735;51.432;5.482;2022-11-25T09:09:06;26.83;;;3.92;;
53833;SDS011;39735;51.432;5.482;2022-11-25T09:11:31;29.27;;;4.03;;
53833;SDS011;39735;51.432;5.482;2022-11-25T09:13:57;18.35;;;3.47;;
53833;SDS011;39735;51.432;5.482;2022-11-25T09:16:22;13.05;;;3.13;;
53833;SDS011;39735;51.432;5.482;2022-11-25T09:18:48;19.92;;;6.00;;
53833;SDS011;39735;51.432;5.482;2022-11-25T09:21:14;25.08;;;5.35;;
53833;SDS011;39735;51.432;5.482;2022-11-25T09:23:40;19.73;;;3.65;;
53833;SDS011;39735;51.432;5.482;2022-11-25T09:26:06;26.67;;;4.32;;
53833;SDS011;39735;51.432;5.482;2022-11-25T09:28:32;8.55;;;2.53;;
53833;SDS011;39735;51.432;5.482;2022-11-25T09:30:58;30.85;;;4.28;;
53833;SDS011;39735;51.432;5.482;2022-11-25T09:33:24;16.08;;;3.35;;
53833;SDS011;39735;51.432;5.482;2022-11-25T09:35:49;14.68;;;5.07;;
53833;SDS011;39735;51.432;5.482;2022-11-25T09:38:15;12.15;;;3.15;;
53833;SDS011;39735;51.432;5.482;2022-11-25T09:46:19;17.85;;;4.47;;
53833;SDS011;39735;51.432;5.482;2022-11-25T09:52:00;17.73;;;3.33;;
53833;SDS011;39735;51.432;5.482;2022-11-25T09:54:37;30.00;;;5.93;;
53833;SDS011;39735;51.432;5.482;2022-11-25T09:59:45;22.88;;;5.22;;
53833;SDS011;39735;51.432;5.482;2022-11-25T10:02:28;18.85;;;3.75;;
53833;SDS011;39735;51.432;5.482;2022-11-25T10:07:42;26.02;;;3.75;;
53833;SDS011;39735;51.432;5.482;2022-11-25T10:11:13;13.57;;;3.95;;
53833;SDS011;39735;51.432;5.482;2022-11-25T10:13:40;19.98;;;3.53;;
53833;SDS011;39735;51.432;5.482;2022-11-25T10:16:14;14.48;;;4.75;;
53833;SDS011;39735;51.432;5.482;2022-11-25T10:18:52;23.58;;;4.75;;
53833;SDS011;39735;51.432;5.482;2022-11-25T10:21:25;20.20;;;3.08;;
53833;SDS011;39735;51.432;5.482;2022-11-25T10:23:51;25.50;;;4.07;;
53833;SDS011;39735;51.432;5.482;2022-11-25T10:26:18;16.10;;;3.47;;
53833;SDS011;39735;51.432;5.482;2022-11-25T10:29:12;20.48;;;3.78;;
53833;SDS011;39735;51.432;5.482;2022-11-25T10:31:44;20.73;;;5.97;;
53833;SDS011;39735;51.432;5.482;2022-11-25T10:36:56;11.15;;;3.58;;
53833;SDS011;39735;51.432;5.482;2022-11-25T10:39:23;16.23;;;6.35;;
53833;SDS011;39735;51.432;5.482;2022-11-25T10:41:55;15.68;;;4.38;;
53833;SDS011;39735;51.432;5.482;2022-11-25T10:44:27;14.95;;;2.88;;
53833;SDS011;39735;51.432;5.482;2022-11-25T10:52:39;22.48;;;4.15;;
53833;SDS011;39735;51.432;5.482;2022-11-25T10:57:38;14.75;;;3.40;;
53833;SDS011;39735;51.432;5.482;2022-11-25T11:00:04;12.13;;;3.28;;
53833;SDS011;39735;51.432;5.482;2022-11-25T11:02:38;30.25;;;8.27;;
53833;SDS011;39735;51.432;5.482;2022-11-25T11:07:42;24.13;;;4.43;;
53833;SDS011;39735;51.432;5.482;2022-11-25T11:10:14;11.30;;;3.08;;
53833;SDS011;39735;51.432;5.482;2022-11-25T11:15:23;39.95;;;5.03;;
53833;SDS011;39735;51.432;5.482;2022-11-25T11:20:46;26.48;;;5.57;;
53833;SDS011;39735;51.432;5.482;2022-11-25T11:23:13;23.17;;;4.22;;
53833;SDS011;39735;51.432;5.482;2022-11-25T11:25:40;12.25;;;3.45;;
53833;SDS011;39735;51.432;5.482;2022-11-25T11:31:16;17.88;;;3.47;;
53833;SDS011;39735;51.432;5.482;2022-11-25T11:38:42;17.85;;;3.85;;
53833;SDS011;39735;51.432;5.482;2022-11-25T11:44:05;13.73;;;3.25;;
53833;SDS011;39735;51.432;5.482;2022-11-25T11:49:34;7.57;;;2.88;;
53833;SDS011;39735;51.432;5.482;2022-11-25T11:54:52;17.83;;;3.65;;
53833;SDS011;39735;51.432;5.482;2022-11-25T11:59:54;12.18;;;2.53;;
53833;SDS011;39735;51.432;5.482;2022-11-25T12:05:14;13.88;;;4.18;;
53833;SDS011;39735;51.432;5.482;2022-11-25T12:10:19;11.82;;;3.70;;
53833;SDS011;39735;51.432;5.482;2022-11-25T12:17:59;13.73;;;2.70;;
53833;SDS011;39735;51.432;5.482;2022-11-25T12:20:37;28.98;;;3.85;;
53833;SDS011;39735;51.432;5.482;2022-11-25T12:23:08;36.70;;;6.43;;
53833;SDS011;39735;51.432;5.482;2022-11-25T12:25:40;23.13;;;4.28;;
53833;SDS011;39735;51.432;5.482;2022-11-25T12:28:09;16.15;;;3.65;;
53833;SDS011;39735;51.432;5.482;2022-11-25T12:30:40;29.50;;;5.32;;
53833;SDS011;39735;51.432;5.482;2022-11-25T12:33:38;21.83;;;4.32;;
53833;SDS011;39735;51.432;5.482;2022-11-25T12:36:30;19.65;;;5.22;;
53833;SDS011;39735;51.432;5.482;2022-11-25T12:38:59;27.15;;;4.43;;
53833;SDS011;39735;51.432;5.482;2022-11-25T12:47:04;23.50;;;4.85;;
53833;SDS011;39735;51.432;5.482;2022-11-25T12:49:38;42.72;;;6.93;;
53833;SDS011;39735;51.432;5.482;2022-11-25T12:54:53;30.27;;;4.18;;
53833;SDS011;39735;51.432;5.482;2022-11-25T13:00:20;26.52;;;4.60;;
53833;SDS011;39735;51.432;5.482;2022-11-25T13:09:00;20.83;;;4.70;;
53833;SDS011;39735;51.432;5.482;2022-11-25T13:12:12;26.77;;;3.63;;
53833;SDS011;39735;51.432;5.482;2022-11-25T13:14:54;23.90;;;4.47;;
53833;SDS011;39735;51.432;5.482;2022-11-25T13:17:24;22.23;;;4.82;;
53833;SDS011;39735;51.432;5.482;2022-11-25T13:20:21;22.98;;;5.68;;
53833;SDS011;39735;51.432;5.482;2022-11-25T13:23:00;22.25;;;5.80;;
53833;SDS011;39735;51.432;5.482;2022-11-25T13:25:29;37.15;;;8.13;;
53833;SDS011;39735;51.432;5.482;2022-11-25T13:27:56;24.48;;;5.53;;
53833;SDS011;39735;51.432;5.482;2022-11-25T13:35:56;31.63;;;5.65;;
53833;SDS011;39735;51.432;5.482;2022-11-25T13:38:34;30.42;;;6.38;;
53833;SDS011;39735;51.432;5.482;2022-11-25T13:41:02;32.97;;;4.32;;
53833;SDS011;39735;51.432;5.482;2022-11-25T13:43:30;37.88;;;7.07;;
53833;SDS011;39735;51.432;5.482;2022-11-25T13:45:56;31.02;;;6.00;;
53833;SDS011;39735;51.432;5.482;2022-11-25T13:48:22;21.63;;;5.85;;
53833;SDS011;39735;51.432;5.482;2022-11-25T13:51:11;31.80;;;5.82;;
53833;SDS011;39735;51.432;5.482;2022-11-25T13:53:59;34.90;;;4.20;;
53833;SDS011;39735;51.432;5.482;2022-11-25T13:56:29;21.88;;;4.35;;
53833;SDS011;39735;51.432;5.482;2022-11-25T14:04:09;15.43;;;4.20;;
53833;SDS011;39735;51.432;5.482;2022-11-25T14:15:15;40.45;;;6.38;;
53833;SDS011;39735;51.432;5.482;2022-11-25T14:23:52;32.17;;;4.43;;
53833;SDS011;39735;51.432;5.482;2022-11-25T14:26:29;26.73;;;5.47;;
53833;SDS011;39735;51.432;5.482;2022-11-25T14:31:36;25.02;;;5.10;;
53833;SDS011;39735;51.432;5.482;2022-11-25T14:34:10;31.67;;;5.45;;
53833;SDS011;39735;51.432;5.482;2022-11-25T14:36:40;22.88;;;6.22;;
53833;SDS011;39735;51.432;5.482;2022-11-25T14:39:22;32.75;;;6.85;;
53833;SDS011;39735;51.432;5.482;2022-11-25T14:42:02;24.38;;;4.88;;
53833;SDS011;39735;51.432;5.482;2022-11-25T14:44:38;53.88;;;11.02;;
53833;SDS011;39735;51.432;5.482;2022-11-25T14:47:08;60.78;;;7.88;;
53833;SDS011;39735;51.432;5.482;2022-11-25T14:49:47;33.25;;;7.90;;
53833;SDS011;39735;51.432;5.482;2022-11-25T14:52:18;26.92;;;5.55;;
53833;SDS011;39735;51.432;5.482;2022-11-25T14:54:46;35.33;;;4.72;;
53833;SDS011;39735;51.432;5.482;2022-11-25T14:57:12;31.02;;;5.15;;
53833;SDS011;39735;51.432;5.482;2022-11-25T14:59:37;40.05;;;6.82;;
53833;SDS011;39735;51.432;5.482;2022-11-25T15:02:03;23.35;;;6.82;;
53833;SDS011;39735;51.432;5.482;2022-11-25T15:04:29;43.65;;;7.53;;
53833;SDS011;39735;51.432;5.482;2022-11-25T15:06:56;29.50;;;5.85;;
53833;SDS011;39735;51.432;5.482;2022-11-25T15:09:35;14.38;;;4.88;;
53833;SDS011;39735;51.432;5.482;2022-11-25T15:12:03;22.75;;;5.13;;
53833;SDS011;39735;51.432;5.482;2022-11-25T15:14:30;26.30;;;5.93;;
53833;SDS011;39735;51.432;5.482;2022-11-25T15:16:58;21.23;;;6.13;;
53833;SDS011;39735;51.432;5.482;2022-11-25T15:19:30;33.53;;;5.63;;
53833;SDS011;39735;51.432;5.482;2022-11-25T15:21:58;36.40;;;8.77;;
53833;SDS011;39735;51.432;5.482;2022-11-25T15:24:30;45.85;;;8.23;;
53833;SDS011;39735;51.432;5.482;2022-11-25T15:26:58;25.13;;;6.35;;
53833;SDS011;39735;51.432;5.482;2022-11-25T15:29:25;23.92;;;6.38;;
53833;SDS011;39735;51.432;5.482;2022-11-25T15:31:51;24.95;;;6.80;;
53833;SDS011;39735;51.432;5.482;2022-11-25T15:34:18;26.23;;;7.80;;
53833;SDS011;39735;51.432;5.482;2022-11-25T15:36:44;30.73;;;10.35;;
53833;SDS011;39735;51.432;5.482;2022-11-25T15:39:23;27.38;;;5.70;;
53833;SDS011;39735;51.432;5.482;2022-11-25T15:41:50;15.77;;;4.32;;
53833;SDS011;39735;51.432;5.482;2022-11-25T15:44:23;21.13;;;4.13;;
53833;SDS011;39735;51.432;5.482;2022-11-25T15:46:54;24.80;;;4.95;;
53833;SDS011;39735;51.432;5.482;2022-11-25T15:49:23;28.13;;;7.63;;
53833;SDS011;39735;51.432;5.482;2022-11-25T15:55:04;20.67;;;7.05;;
53833;SDS011;39735;51.432;5.482;2022-11-25T15:57:15;30.80;;;6.43;;
53833;SDS011;39735;51.432;5.482;2022-11-25T16:00:00;21.95;;;6.70;;
53833;SDS011;39735;51.432;5.482;2022-11-25T16:11:17;43.88;;;9.15;;
53833;SDS011;39735;51.432;5.482;2022-11-25T16:21:21;31.95;;;8.40;;
53833;SDS011;39735;51.432;5.482;2022-11-25T16:23:51;33.92;;;9.02;;
53833;SDS011;39735;51.432;5.482;2022-11-25T16:28:55;27.70;;;7.63;;
53833;SDS011;39735;51.432;5.482;2022-11-25T16:31:22;41.35;;;8.30;;
53833;SDS011;39735;51.432;5.482;2022-11-25T16:33:48;32.58;;;10.73;;
53833;SDS011;39735;51.432;5.482;2022-11-25T16:36:17;41.40;;;15.35;;
53833;SDS011;39735;51.432;5.482;2022-11-25T16:38:43;52.95;;;19.85;;
53833;SDS011;39735;51.432;5.482;2022-11-25T16:41:17;43.38;;;15.93;;
53833;SDS011;39735;51.432;5.482;2022-11-25T16:43:45;33.22;;;11.25;;
53833;SDS011;39735;51.432;5.482;2022-11-25T16:46:12;28.23;;;9.35;;
53833;SDS011;39735;51.432;5.482;2022-11-25T16:48:40;26.58;;;9.02;;
53833;SDS011;39735;51.432;5.482;2022-11-25T16:51:23;38.30;;;11.90;;
53833;SDS011;39735;51.432;5.482;2022-11-25T16:53:49;49.85;;;17.13;;
53833;SDS011;39735;51.432;5.482;2022-11-25T16:56:34;49.72;;;20.83;;